メインページ
METAR-TAF:

METAR-TAF

空港 :

アレハンドロ・ベラスコ・アステテ国際空港

クスコ, ペルー

緯度: 13-33S, 経度: 071-59W, 海抜: 3248m

現時点の気象観測

当レポートは19分前の18:30(UTC)に作成
北/北東の風 10kt、最大21ktの突風を伴う、北西から東/北東の間で変化する
気温 23°C
湿度 23%
気圧 1031 hPa
視程10km以上
高度4300ftの雲は散在している
高度10000ftの雲は散在している

METAR: SPZO 111830Z 02010G21KT 320V070 9999 SCT043 SCT100 23/01 Q1031 NOSIG RMK BIRD HAZARD RWY 28

時間: 13:49 (18:49 UTC)

予報

当レポートは1時間49分前の17:00(UTC)に作成
予報は11日の 18時(UTC)から 12日の 18時(UTC)まで有効
変向風 2kt
視程10km以上
高度5000ftの雲は散在している
高度10000ftの雲は散在している
11日の 18時(UTC)から 11日の 22時(UTC)まで一時的に
の風 15kt
11日の 23時(UTC)から 12日の 01時(UTC)まで徐々に

TAF: SPZO 111700Z 1118/1218 VRB02KT 9999 SCT050 SCT100 TX24/1119Z TN05/1211Z TEMPO 1118/1122 36015KT BECMG 1123/1201 NSC

4,000以上の空港の気象観測と天気予報(METAR報とTAF報)

利用可能な観測所は地図上に黄色い丸と赤い丸で示す。

丸の上にカーソルを重ねると観測所名を参照できる。

次にクリックすると気象観測と天気予報を参照できる。

マップの切り替え:黒色「×」印の緑ボタンをクリックして拡大、「-」印の緑ボタンをクリックして縮小、緑色の三角印をクリックして隣りの地図に切り替え


METAR-TAF: